Time;durP1;ratioP1;P1;durP2;ratioP2;P2;SDS_P1;SDS_P2;PMS_P1;PMS_P2;Temp;Humidity;BMP_temperature;BMP_pressure;BME280_temperature;BME280_humidity;BME280_pressure;Samples;Min_cycle;Max_cycle;Signal;HPM_P1;HPM_P2
2021/12/25 00:01:19;;;;;;;1.67;0.70;;;27.40;99.90;;;;;;5092765;28;20196;-75
2021/12/25 00:03:48;;;;;;;2.80;1.05;;;27.50;99.90;;;;;;5094829;28;20049;-75
2021/12/25 00:06:16;;;;;;;1.52;0.80;;;27.70;99.90;;;;;;5094341;28;20043;-75
2021/12/25 00:08:43;;;;;;;3.42;0.98;;;27.70;99.90;;;;;;5095151;28;20031;-75
2021/12/25 00:11:12;;;;;;;3.08;1.00;;;27.80;99.90;;;;;;5094420;28;20031;-73
2021/12/25 00:13:41;;;;;;;3.25;0.77;;;27.80;99.90;;;;;;5094822;28;20073;-74
2021/12/25 00:16:09;;;;;;;4.00;1.00;;;27.80;99.90;;;;;;5094749;28;20027;-73
2021/12/25 00:18:41;;;;;;;2.13;0.77;;;27.80;99.90;;;;;;5094783;28;20020;-76
2021/12/25 00:21:10;;;;;;;2.45;0.75;;;27.90;99.90;;;;;;5094594;28;20080;-74
2021/12/25 00:23:39;;;;;;;1.98;0.80;;;27.80;99.90;;;;;;5094450;28;20020;-75
2021/12/25 00:26:12;;;;;;;1.30;0.70;;;27.90;99.90;;;;;;5094506;28;20103;-71
2021/12/25 00:36:16;;;;;;;1.55;0.70;;;28.50;99.90;;;;;;5091962;28;20017;-72
2021/12/25 00:38:45;;;;;;;2.28;0.88;;;28.50;99.90;;;;;;5092905;28;20051;-69
2021/12/25 00:41:15;;;;;;;3.13;1.00;;;28.60;99.90;;;;;;5091466;28;20421;-74
2021/12/25 00:43:43;;;;;;;1.75;0.60;;;28.70;99.90;;;;;;5093255;28;20043;-68
2021/12/25 00:46:11;;;;;;;2.00;0.68;;;28.80;99.90;;;;;;5088796;28;20277;-73
2021/12/25 00:48:39;;;;;;;1.58;0.57;;;28.80;99.90;;;;;;5092516;28;20059;-73
2021/12/25 00:51:07;;;;;;;3.47;0.80;;;28.80;99.90;;;;;;5093520;28;20024;-72
2021/12/25 00:53:35;;;;;;;2.25;0.77;;;28.90;99.90;;;;;;5093490;28;20484;-74
2021/12/25 00:56:03;;;;;;;2.80;1.00;;;28.80;99.90;;;;;;5093531;28;20024;-72
2021/12/25 00:58:30;;;;;;;8.15;0.82;;;28.80;99.90;;;;;;5093906;28;20025;-71
2021/12/25 01:00:58;;;;;;;3.05;0.77;;;28.80;99.90;;;;;;5086361;28;20406;-69
2021/12/25 01:03:26;;;;;;;2.33;0.80;;;28.90;99.90;;;;;;5086500;28;20074;-70
2021/12/25 01:05:53;;;;;;;2.95;0.90;;;29.20;99.90;;;;;;5072959;28;20024;-71
2021/12/25 01:08:23;;;;;;;2.40;0.80;;;29.40;99.90;;;;;;5073667;28;20026;-73
2021/12/25 01:10:50;;;;;;;2.33;0.75;;;29.50;99.90;;;;;;5092565;28;20024;-69
2021/12/25 01:13:26;;;;;;;2.00;0.55;;;29.70;99.90;;;;;;5092749;28;20506;-71
2021/12/25 01:37:02;;;;;;;2.10;0.50;;;30.50;99.90;;;;;;5090285;28;20024;-71
2021/12/25 01:47:45;;;;;;;2.58;0.80;;;30.50;99.90;;;;;;5071759;28;20021;-72
2021/12/25 01:47:50;;;;;;;1.13;0.63;;;30.60;99.90;;;;;;5071657;28;20086;-72
2021/12/25 01:50:22;;;;;;;1.55;0.85;;;30.70;99.90;;;;;;5071870;28;20385;-73
2021/12/25 01:52:50;;;;;;;2.25;0.68;;;30.80;99.90;;;;;;5071627;28;20024;-72
2021/12/25 01:55:28;;;;;;;1.77;0.80;;;30.90;99.90;;;;;;5055316;28;20031;-72
2021/12/25 01:57:57;;;;;;;2.40;0.68;;;30.90;99.90;;;;;;5073056;28;20021;-73
2021/12/25 02:00:35;;;;;;;3.15;1.08;;;31.00;99.90;;;;;;5072946;28;20386;-73
2021/12/25 02:03:06;;;;;;;1.48;0.38;;;30.90;99.90;;;;;;5073182;28;20024;-73
2021/12/25 02:05:34;;;;;;;1.77;0.50;;;31.00;99.10;;;;;;5073196;28;20036;-74
2021/12/25 02:08:02;;;;;;;2.03;0.80;;;31.10;99.60;;;;;;5073177;28;20023;-73
2021/12/25 02:10:30;;;;;;;1.83;0.68;;;31.10;99.90;;;;;;5073087;28;20028;-74
2021/12/25 02:12:57;;;;;;;1.77;0.80;;;31.30;99.90;;;;;;5073052;28;20020;-73
2021/12/25 02:15:27;;;;;;;1.75;0.77;;;31.40;98.40;;;;;;5072869;28;20029;-74
2021/12/25 02:18:08;;;;;;;3.83;0.95;;;31.40;97.80;;;;;;5071154;28;20028;-74
2021/12/25 02:20:48;;;;;;;4.00;0.60;;;31.40;97.60;;;;;;5083997;28;20025;-73
2021/12/25 02:23:22;;;;;;;5.25;1.08;;;31.30;98.00;;;;;;5073051;28;20047;-72
2021/12/25 02:25:52;;;;;;;3.60;0.70;;;31.10;99.40;;;;;;5072230;28;20056;-72
2021/12/25 02:28:21;;;;;;;2.88;1.00;;;31.20;99.60;;;;;;5072884;28;20021;-71
2021/12/25 02:30:51;;;;;;;1.67;0.93;;;31.40;99.90;;;;;;5076268;28;20107;-73
2021/12/25 02:33:19;;;;;;;3.22;0.60;;;31.30;99.90;;;;;;5076186;28;20087;-73
2021/12/25 02:35:47;;;;;;;2.58;0.95;;;31.30;99.60;;;;;;5076106;28;20091;-72
2021/12/25 02:38:15;;;;;;;2.20;0.73;;;30.90;99.90;;;;;;5075765;28;20056;-74
2021/12/25 02:40:43;;;;;;;1.35;0.82;;;30.90;99.00;;;;;;5093537;28;20371;-74
2021/12/25 02:43:11;;;;;;;2.50;1.05;;;31.10;99.90;;;;;;5096210;28;20357;-74
2021/12/25 02:45:39;;;;;;;2.78;0.98;;;30.80;99.80;;;;;;5095963;28;20119;-74
2021/12/25 02:48:10;;;;;;;1.98;0.95;;;30.80;99.90;;;;;;5096059;28;20023;-74
2021/12/25 02:50:39;;;;;;;5.00;1.00;;;31.00;99.90;;;;;;5087220;28;20282;-72
2021/12/25 02:53:09;;;;;;;3.60;0.70;;;30.90;99.90;;;;;;5075752;28;20017;-71
2021/12/25 02:55:39;;;;;;;2.63;0.88;;;30.70;99.90;;;;;;5075664;28;20013;-72
2021/12/25 02:58:07;;;;;;;2.13;0.70;;;30.40;99.90;;;;;;5075653;28;20016;-74
2021/12/25 03:00:40;;;;;;;2.45;0.85;;;30.10;99.90;;;;;;5075460;28;20046;-70
2021/12/25 03:03:08;;;;;;;4.47;0.73;;;30.10;99.90;;;;;;5078239;28;20016;-73
2021/12/25 03:05:37;;;;;;;2.83;0.70;;;30.10;99.90;;;;;;5095005;28;20532;-72
2021/12/25 03:08:07;;;;;;;3.28;0.70;;;30.10;99.90;;;;;;5095569;28;20069;-72
2021/12/25 03:10:37;;;;;;;5.63;1.20;;;30.10;99.90;;;;;;5095834;28;20020;-72
2021/12/25 03:15:47;;;;;;;2.15;1.13;;;30.40;99.90;;;;;;5082458;28;20389;-72
2021/12/25 03:18:23;;;;;;;2.25;0.52;;;30.30;99.90;;;;;;5082526;28;20016;-72
2021/12/25 03:20:55;;;;;;;1.88;0.73;;;30.50;99.90;;;;;;5093425;28;20024;-72
2021/12/25 03:23:24;;;;;;;6.18;0.80;;;30.60;99.90;;;;;;5092892;28;20039;-73
2021/12/25 03:25:54;;;;;;;2.30;0.52;;;30.80;99.90;;;;;;5094472;28;20028;-73
2021/12/25 03:28:25;;;;;;;2.60;0.88;;;30.90;99.90;;;;;;5094796;28;20076;-72
2021/12/25 03:30:52;;;;;;;5.05;0.75;;;30.90;99.90;;;;;;5094770;28;20016;-74
2021/12/25 03:33:21;;;;;;;1.95;0.90;;;30.80;99.90;;;;;;5094640;28;20012;-72
2021/12/25 03:35:49;;;;;;;4.75;0.60;;;30.90;99.90;;;;;;5094726;28;20354;-71
2021/12/25 03:38:21;;;;;;;2.35;0.65;;;30.70;99.90;;;;;;5094335;28;20081;-70
2021/12/25 03:40:51;;;;;;;4.13;0.73;;;30.60;99.90;;;;;;5093484;28;20103;-67
2021/12/25 03:43:20;;;;;;;1.95;0.88;;;30.30;99.90;;;;;;5093685;28;20024;-70
2021/12/25 03:45:48;;;;;;;5.85;1.00;;;30.20;99.90;;;;;;5094489;28;20028;-67
2021/12/25 03:48:42;;;;;;;2.67;0.70;;;30.00;99.90;;;;;;5094847;28;20103;-73
2021/12/25 03:59:08;;;;;;;2.13;0.70;;;29.60;99.90;;;;;;5094361;28;20447;-75
2021/12/25 04:04:21;;;;;;;3.55;0.70;;;30.00;99.90;;;;;;5092627;28;20036;-67
2021/12/25 04:07:02;;;;;;;3.03;0.80;;;30.10;99.90;;;;;;5094228;28;20016;-68
2021/12/25 04:09:33;;;;;;;2.35;0.68;;;29.90;99.90;;;;;;5091831;28;20038;-73
2021/12/25 04:12:09;;;;;;;5.53;1.10;;;30.00;99.90;;;;;;5090831;28;20058;-73
2021/12/25 04:14:37;;;;;;;2.67;0.90;;;30.10;99.90;;;;;;5092597;28;20528;-74
2021/12/25 04:17:05;;;;;;;8.40;0.95;;;30.20;99.90;;;;;;5092147;28;20027;-73
2021/12/25 04:19:33;;;;;;;2.53;0.65;;;30.10;99.90;;;;;;5092170;28;20103;-73
2021/12/25 04:22:16;;;;;;;5.22;0.90;;;30.20;99.90;;;;;;5072894;28;20104;-75
2021/12/25 04:24:45;;;;;;;3.63;1.00;;;30.30;99.90;;;;;;5076864;28;20165;-69
2021/12/25 04:27:16;;;;;;;3.78;0.70;;;30.20;99.90;;;;;;5072583;28;20020;-73
2021/12/25 04:29:54;;;;;;;2.08;0.73;;;30.00;99.90;;;;;;5072707;28;20054;-72
2021/12/25 05:05:18;;;;;;;3.75;1.10;;;28.50;99.90;;;;;;5071397;28;20044;-72
2021/12/25 05:07:46;;;;;;;7.03;1.00;;;28.10;99.90;;;;;;5072492;28;20032;-72
2021/12/25 05:10:14;;;;;;;3.13;1.15;;;28.10;99.90;;;;;;5072836;28;20024;-73
2021/12/25 05:12:42;;;;;;;6.93;1.27;;;28.00;99.90;;;;;;5072860;28;20494;-68
2021/12/25 05:15:10;;;;;;;4.15;1.15;;;28.00;99.90;;;;;;5075744;28;20019;-70
2021/12/25 05:17:38;;;;;;;6.65;0.82;;;27.80;99.90;;;;;;5072700;28;20519;-72
2021/12/25 05:20:06;;;;;;;2.72;1.00;;;27.60;99.90;;;;;;5071971;28;20054;-73
2021/12/25 05:22:33;;;;;;;3.42;0.70;;;27.50;99.90;;;;;;5072053;28;20028;-73
2021/12/25 05:25:01;;;;;;;4.18;0.95;;;27.60;99.90;;;;;;5072223;28;20119;-68
2021/12/25 05:27:30;;;;;;;9.35;1.15;;;27.60;99.90;;;;;;5072246;28;20021;-73
2021/12/25 05:29:58;;;;;;;3.65;0.93;;;27.60;99.90;;;;;;5075097;28;20019;-68
2021/12/25 05:32:25;;;;;;;4.25;1.52;;;27.50;99.90;;;;;;5078041;28;20019;-70
2021/12/25 05:34:53;;;;;;;4.13;1.23;;;27.50;99.90;;;;;;5078958;28;20016;-69
2021/12/25 05:37:20;;;;;;;5.60;1.10;;;27.30;99.90;;;;;;5076686;28;20020;-70
2021/12/25 05:39:51;;;;;;;6.32;1.13;;;27.10;99.90;;;;;;5080953;28;20036;-70
2021/12/25 05:42:22;;;;;;;2.60;0.80;;;26.90;99.90;;;;;;5084795;28;20396;-70
2021/12/25 05:44:51;;;;;;;4.57;0.85;;;26.80;99.90;;;;;;5090790;28;20035;-72
2021/12/25 05:47:19;;;;;;;3.05;0.90;;;26.70;99.90;;;;;;5080091;28;20034;-69
2021/12/25 05:49:46;;;;;;;2.40;0.77;;;26.60;99.90;;;;;;5075245;28;20438;-74
2021/12/25 05:52:14;;;;;;;5.05;1.20;;;26.50;99.90;;;;;;5071902;28;20024;-70
2021/12/25 05:54:42;;;;;;;4.25;1.10;;;26.70;99.90;;;;;;5072464;28;20020;-71
2021/12/25 05:57:09;;;;;;;3.53;1.13;;;26.70;99.90;;;;;;5072349;28;20024;-67
2021/12/25 05:59:36;;;;;;;2.13;0.88;;;26.70;99.90;;;;;;5089835;28;20031;-70
2021/12/25 06:02:04;;;;;;;4.05;1.15;;;26.60;99.90;;;;;;5091315;28;20029;-67
2021/12/25 06:04:41;;;;;;;;;;;;;;;;;;;;;
2021/12/25 06:07:09;;;;;;;4.72;1.05;;;26.50;99.90;;;;;;5090507;28;20028;-74
2021/12/25 06:09:37;;;;;;;5.47;1.15;;;26.50;99.90;;;;;;5096681;28;20022;-70
2021/12/25 06:12:06;;;;;;;8.40;1.60;;;26.50;99.90;;;;;;5096664;28;20038;-68
2021/12/25 06:14:35;;;;;;;2.95;0.85;;;26.50;99.90;;;;;;5096590;28;20441;-74
2021/12/25 06:17:02;;;;;;;3.55;1.17;;;26.50;99.90;;;;;;5096188;28;20044;-69
2021/12/25 06:19:29;;;;;;;1.95;0.88;;;26.50;99.90;;;;;;5096327;28;20032;-69
2021/12/25 06:21:57;;;;;;;4.97;1.08;;;26.30;99.90;;;;;;5093455;28;20020;-69
2021/12/25 06:24:26;;;;;;;4.78;1.00;;;26.40;99.90;;;;;;5076281;28;20044;-68
2021/12/25 06:26:53;;;;;;;3.70;0.80;;;26.40;99.90;;;;;;5093530;28;20071;-72
2021/12/25 06:29:20;;;;;;;2.95;1.05;;;26.30;99.90;;;;;;5096093;28;20036;-68
2021/12/25 06:31:48;;;;;;;4.97;1.00;;;26.20;99.90;;;;;;5093458;28;20059;-69
2021/12/25 06:34:16;;;;;;;3.42;0.95;;;26.10;99.90;;;;;;5088559;28;20370;-67
2021/12/25 06:36:43;;;;;;;3.55;0.95;;;26.00;99.90;;;;;;5075749;28;20016;-70
2021/12/25 06:39:14;;;;;;;8.57;0.90;;;25.90;99.90;;;;;;5075274;28;20032;-67
2021/12/25 06:41:43;;;;;;;5.88;1.10;;;25.90;99.90;;;;;;5075614;28;20032;-70
2021/12/25 06:44:10;;;;;;;3.22;0.70;;;25.90;99.90;;;;;;5075673;28;20021;-74
2021/12/25 06:46:38;;;;;;;3.72;0.95;;;25.90;99.90;;;;;;5075802;28;20151;-69
2021/12/25 06:49:05;;;;;;;3.00;1.15;;;26.00;99.90;;;;;;5075676;28;20024;-67
2021/12/25 06:51:34;;;;;;;4.50;1.15;;;25.80;99.90;;;;;;5075025;28;20496;-70
2021/12/25 06:54:03;;;;;;;5.85;0.82;;;25.80;99.90;;;;;;5089622;28;20060;-68
2021/12/25 06:56:30;;;;;;;3.13;0.80;;;25.70;99.90;;;;;;5095507;28;20099;-73
2021/12/25 06:58:58;;;;;;;7.53;0.93;;;25.60;99.90;;;;;;5095893;28;20414;-70
2021/12/25 07:01:25;;;;;;;5.35;1.05;;;25.60;99.90;;;;;;5092534;28;20024;-71
2021/12/25 07:03:52;;;;;;;4.63;1.23;;;25.50;99.90;;;;;;5095077;28;20020;-70
2021/12/25 07:06:21;;;;;;;9.05;0.90;;;25.50;99.90;;;;;;5095665;28;20372;-71
2021/12/25 07:08:49;;;;;;;6.28;0.68;;;25.40;99.90;;;;;;5077789;28;20027;-70
2021/12/25 07:11:19;;;;;;;5.45;1.10;;;25.40;99.90;;;;;;5095321;28;20028;-70
2021/12/25 07:13:46;;;;;;;8.38;1.73;;;25.40;99.90;;;;;;5094730;28;20047;-72
2021/12/25 07:16:14;;;;;;;4.65;1.00;;;25.40;99.90;;;;;;5095315;28;20023;-73
2021/12/25 07:18:41;;;;;;;3.13;0.80;;;25.40;99.90;;;;;;5094716;28;20154;-70
2021/12/25 07:21:09;;;;;;;5.25;1.40;;;25.30;99.90;;;;;;5091885;28;20032;-67
2021/12/25 07:23:36;;;;;;;4.35;1.23;;;25.20;99.90;;;;;;5094408;28;20065;-67
2021/12/25 07:26:04;;;;;;;4.85;1.00;;;25.20;99.90;;;;;;5083734;28;20033;-74
2021/12/25 07:28:32;;;;;;;3.35;1.08;;;25.20;99.90;;;;;;5088056;28;20035;-73
2021/12/25 07:31:00;;;;;;;8.35;1.48;;;25.10;99.90;;;;;;5094938;28;20095;-71
2021/12/25 07:33:29;;;;;;;8.88;0.80;;;25.10;99.90;;;;;;5094832;28;20039;-68
2021/12/25 07:35:57;;;;;;;8.10;1.10;;;24.90;99.90;;;;;;5094975;28;20104;-72
2021/12/25 07:38:25;;;;;;;5.60;0.57;;;24.90;99.90;;;;;;5094613;28;20052;-70
2021/12/25 07:40:52;;;;;;;5.85;1.33;;;24.90;99.90;;;;;;5094952;28;20058;-66
2021/12/25 07:43:20;;;;;;;5.82;1.38;;;24.80;99.90;;;;;;5084071;28;20500;-72
2021/12/25 07:45:48;;;;;;;4.68;1.50;;;24.80;99.90;;;;;;5091974;28;20032;-68
2021/12/25 07:48:19;;;;;;;5.03;1.80;;;24.70;99.90;;;;;;5094767;28;20035;-67
2021/12/25 07:50:47;;;;;;;5.40;1.20;;;24.70;99.90;;;;;;5094622;28;20034;-68
2021/12/25 07:53:18;;;;;;;7.03;1.88;;;24.60;99.90;;;;;;5094659;28;20020;-71
2021/12/25 07:55:50;;;;;;;7.05;1.33;;;24.50;99.90;;;;;;5094579;28;20016;-73
2021/12/25 07:58:21;;;;;;;5.43;1.00;;;24.50;99.90;;;;;;5094611;28;20035;-69
2021/12/25 08:00:48;;;;;;;5.30;0.82;;;24.50;99.90;;;;;;5094985;28;20031;-71
2021/12/25 08:03:16;;;;;;;4.97;1.55;;;24.40;99.90;;;;;;5094369;28;20031;-74
2021/12/25 08:05:44;;;;;;;3.60;0.95;;;24.40;99.90;;;;;;5094399;28;20107;-72
2021/12/25 08:08:12;;;;;;;7.50;1.15;;;24.40;99.90;;;;;;5076325;28;20103;-69
2021/12/25 08:10:40;;;;;;;4.43;1.40;;;24.30;99.90;;;;;;5078488;28;20024;-72
2021/12/25 08:13:08;;;;;;;5.65;1.48;;;24.40;99.90;;;;;;5073507;28;20051;-74
2021/12/25 08:15:35;;;;;;;6.45;1.10;;;24.40;99.90;;;;;;5072230;28;20020;-72
2021/12/25 08:18:03;;;;;;;10.10;1.17;;;24.40;99.90;;;;;;5072325;28;20020;-73
2021/12/25 08:20:32;;;;;;;3.42;1.02;;;24.40;99.90;;;;;;5072126;28;20389;-73
2021/12/25 08:22:59;;;;;;;5.15;1.08;;;24.30;99.90;;;;;;5072133;28;20020;-71
2021/12/25 08:25:27;;;;;;;7.07;1.50;;;24.30;99.90;;;;;;5072187;28;20036;-74
2021/12/25 08:27:55;;;;;;;9.70;1.20;;;24.20;99.90;;;;;;5072032;28;20017;-72
2021/12/25 08:30:26;;;;;;;6.55;1.17;;;24.10;99.90;;;;;;5083724;28;20056;-70
2021/12/25 08:32:59;;;;;;;3.08;1.02;;;24.20;99.90;;;;;;5081979;28;20448;-71
2021/12/25 08:35:29;;;;;;;3.78;1.27;;;24.10;99.90;;;;;;5054940;28;20027;-72
2021/12/25 08:37:57;;;;;;;12.20;1.67;;;24.00;99.90;;;;;;5072132;28;20028;-73
2021/12/25 08:40:27;;;;;;;6.10;1.33;;;24.10;99.90;;;;;;5054651;28;20117;-73
2021/12/25 08:43:00;;;;;;;2.60;1.02;;;24.00;99.90;;;;;;5054823;28;20377;-74
2021/12/25 08:45:47;;;;;;;10.68;1.77;;;23.90;99.90;;;;;;5073152;28;20039;-73
2021/12/25 08:48:21;;;;;;;8.45;1.90;;;23.90;99.90;;;;;;5057967;28;20017;-71
2021/12/25 08:50:51;;;;;;;5.75;1.23;;;23.80;99.90;;;;;;5072928;28;20021;-70
2021/12/25 08:53:20;;;;;;;4.63;1.38;;;23.80;99.90;;;;;;5072367;28;20027;-72
2021/12/25 08:55:50;;;;;;;7.43;1.80;;;23.80;99.90;;;;;;5072789;28;20100;-73
2021/12/25 08:58:18;;;;;;;7.57;1.75;;;23.80;99.90;;;;;;5072761;28;20025;-72
2021/12/25 09:00:47;;;;;;;11.27;1.52;;;23.70;99.90;;;;;;5072467;28;20023;-72
2021/12/25 09:03:15;;;;;;;3.50;1.00;;;23.60;99.90;;;;;;5072644;28;20027;-71
2021/12/25 09:05:42;;;;;;;8.68;1.52;;;23.60;99.90;;;;;;5072552;28;20036;-73
2021/12/25 09:08:10;;;;;;;6.38;1.65;;;23.60;99.90;;;;;;5056998;28;20428;-73
2021/12/25 09:10:38;;;;;;;7.00;1.25;;;23.60;99.90;;;;;;5053991;28;20546;-71
2021/12/25 09:13:05;;;;;;;6.65;1.45;;;23.60;99.90;;;;;;5053292;28;20013;-73
2021/12/25 09:15:33;;;;;;;10.52;1.50;;;23.50;99.90;;;;;;5072165;28;20103;-70
2021/12/25 09:18:00;;;;;;;4.80;1.30;;;23.50;99.90;;;;;;5074030;28;20036;-73
2021/12/25 09:20:28;;;;;;;7.47;1.35;;;23.40;99.90;;;;;;5071650;28;20100;-74
2021/12/25 09:22:57;;;;;;;4.40;0.93;;;23.40;99.90;;;;;;5071959;28;20021;-74
2021/12/25 09:25:25;;;;;;;9.20;1.33;;;23.40;99.90;;;;;;5072081;28;20107;-73
2021/12/25 09:27:53;;;;;;;9.00;1.67;;;23.40;99.90;;;;;;5072162;28;20023;-73
2021/12/25 09:30:21;;;;;;;4.15;0.80;;;23.30;99.90;;;;;;5071507;28;20481;-71
2021/12/25 09:32:49;;;;;;;6.93;0.98;;;23.30;99.90;;;;;;5072270;28;20020;-74
2021/12/25 09:35:17;;;;;;;4.60;0.80;;;23.30;99.90;;;;;;5072916;28;20023;-73
2021/12/25 09:37:44;;;;;;;7.55;1.27;;;23.30;99.90;;;;;;5071899;28;20037;-72
2021/12/25 09:40:12;;;;;;;7.22;1.55;;;23.20;99.90;;;;;;5071886;28;20032;-71
2021/12/25 09:42:42;;;;;;;5.68;1.27;;;23.20;99.90;;;;;;5071719;28;20100;-72
2021/12/25 09:45:14;;;;;;;9.05;1.35;;;23.20;99.90;;;;;;5052782;28;20063;-73
2021/12/25 09:47:42;;;;;;;4.32;1.15;;;23.10;99.90;;;;;;5071987;28;20016;-72
2021/12/25 09:50:11;;;;;;;7.35;1.17;;;23.10;99.90;;;;;;5073867;28;20034;-71
2021/12/25 09:52:39;;;;;;;5.20;0.82;;;23.10;99.90;;;;;;5071795;28;20074;-71
2021/12/25 09:55:08;;;;;;;7.22;2.05;;;23.10;99.90;;;;;;5071866;28;20096;-71
2021/12/25 09:57:36;;;;;;;8.13;1.70;;;23.10;99.90;;;;;;5071994;28;20012;-71
2021/12/25 10:00:11;;;;;;;4.90;1.30;;;23.10;99.90;;;;;;5071719;28;20056;-72
2021/12/25 10:02:48;;;;;;;4.35;1.65;;;23.10;99.90;;;;;;5071412;28;20029;-71
2021/12/25 10:05:35;;;;;;;3.33;0.90;;;23.00;99.90;;;;;;5071454;28;20039;-71
2021/12/25 10:08:10;;;;;;;2.45;0.95;;;23.00;99.90;;;;;;5070641;28;20012;-72
2021/12/25 10:10:47;;;;;;;5.68;1.15;;;22.90;99.90;;;;;;5087459;28;20028;-73
2021/12/25 10:13:20;;;;;;;5.95;1.52;;;22.90;99.90;;;;;;5053654;28;20462;-70
2021/12/25 10:15:48;;;;;;;7.70;1.27;;;22.80;99.90;;;;;;5071682;28;20021;-70
2021/12/25 10:18:24;;;;;;;4.97;1.35;;;22.80;99.90;;;;;;5070790;28;20017;-72
2021/12/25 10:20:51;;;;;;;;;;;22.80;99.90;;;;;;5072127;28;20017;-72
2021/12/25 10:23:25;;;;;;;7.35;1.52;;;22.70;99.90;;;;;;5086945;28;20395;-72
2021/12/25 10:25:56;;;;;;;5.03;1.40;;;22.70;99.90;;;;;;5072794;28;20070;-72
2021/12/25 10:28:43;;;;;;;3.42;0.90;;;22.70;99.90;;;;;;5071053;28;20028;-72
2021/12/25 10:31:16;;;;;;;4.15;1.15;;;22.70;99.90;;;;;;5071657;28;20021;-72
2021/12/25 10:33:50;;;;;;;4.53;1.23;;;22.60;99.90;;;;;;5071422;28;20071;-71
2021/12/25 10:36:27;;;;;;;9.48;1.38;;;22.50;99.90;;;;;;5070880;28;20553;-72
2021/12/25 10:39:09;;;;;;;2.90;0.90;;;22.50;99.90;;;;;;5071631;28;20517;-73
2021/12/25 10:41:50;;;;;;;6.57;1.30;;;22.50;99.90;;;;;;5070992;28;20028;-71
2021/12/25 10:44:23;;;;;;;2.17;0.85;;;22.40;99.90;;;;;;5071276;28;20047;-74
2021/12/25 10:47:05;;;;;;;8.18;1.20;;;22.40;99.90;;;;;;5071320;28;20028;-73
2021/12/25 10:49:43;;;;;;;6.13;1.10;;;22.30;99.90;;;;;;5071869;28;20016;-71
2021/12/25 10:52:23;;;;;;;4.68;1.30;;;22.30;99.90;;;;;;5074328;28;20032;-72
2021/12/25 10:54:58;;;;;;;5.88;1.45;;;22.30;99.90;;;;;;5073154;28;20461;-70
2021/12/25 10:57:42;;;;;;;4.72;1.20;;;22.20;99.90;;;;;;5057841;28;20024;-70
2021/12/25 11:00:10;;;;;;;5.28;1.23;;;22.20;99.90;;;;;;5074638;28;20473;-70
2021/12/25 11:02:42;;;;;;;3.10;1.02;;;22.10;99.90;;;;;;5073658;28;20106;-72
2021/12/25 11:05:39;;;;;;;5.93;1.38;;;22.10;99.90;;;;;;5073163;28;20048;-71
2021/12/25 11:08:16;;;;;;;6.93;1.40;;;22.00;99.90;;;;;;5072840;28;20027;-72
2021/12/25 11:10:53;;;;;;;4.25;1.17;;;22.00;99.90;;;;;;5072542;28;20028;-70
2021/12/25 11:13:37;;;;;;;2.58;1.15;;;22.00;99.90;;;;;;5072723;28;20066;-71
2021/12/25 11:16:31;;;;;;;3.38;1.00;;;22.00;99.90;;;;;;5073791;28;20419;-71
2021/12/25 11:19:10;;;;;;;5.93;1.42;;;21.90;99.90;;;;;;5071816;28;20067;-72
2021/12/25 11:21:44;;;;;;;8.85;1.05;;;21.90;99.90;;;;;;5074658;28;20016;-70
2021/12/25 11:24:15;;;;;;;10.20;1.90;;;21.80;99.90;;;;;;5074306;28;20028;-70
2021/12/25 11:26:45;;;;;;;7.15;1.90;;;21.80;99.90;;;;;;5074296;28;20553;-70
2021/12/25 11:29:14;;;;;;;3.65;1.13;;;21.80;99.90;;;;;;5073777;28;20078;-70
2021/12/25 11:31:44;;;;;;;10.52;1.88;;;21.80;99.90;;;;;;5075240;28;20028;-71
2021/12/25 11:34:11;;;;;;;4.50;1.05;;;21.80;99.90;;;;;;5073774;28;20428;-70
2021/12/25 11:36:45;;;;;;;4.63;1.15;;;21.80;99.90;;;;;;5074131;28;20578;-70
2021/12/25 11:39:15;;;;;;;7.03;1.40;;;21.70;99.90;;;;;;5075591;28;20052;-72
2021/12/25 11:41:43;;;;;;;6.18;1.30;;;21.70;99.90;;;;;;5073872;28;20028;-70
2021/12/25 11:44:39;;;;;;;7.47;1.63;;;21.70;99.90;;;;;;5073730;28;20021;-71
2021/12/25 11:47:07;;;;;;;9.77;1.55;;;21.60;99.90;;;;;;5070821;28;20028;-70
2021/12/25 11:49:53;;;;;;;4.15;1.00;;;21.70;99.90;;;;;;5074073;28;20024;-70
2021/12/25 11:52:25;;;;;;;6.93;1.42;;;21.60;99.90;;;;;;5073751;28;20044;-70
2021/12/25 11:55:16;;;;;;;9.90;1.50;;;21.60;99.90;;;;;;5073982;28;20107;-71
2021/12/25 11:58:02;;;;;;;7.03;1.55;;;21.60;99.90;;;;;;5073953;28;20103;-72
2021/12/25 12:00:43;;;;;;;4.45;1.45;;;21.60;99.90;;;;;;5072242;28;20572;-70
2021/12/25 12:03:30;;;;;;;7.00;2.05;;;21.50;99.90;;;;;;5074817;28;20025;-71
2021/12/25 12:05:57;;;;;;;6.90;1.67;;;21.50;99.90;;;;;;5073730;28;20451;-72
2021/12/25 12:08:25;;;;;;;9.77;1.35;;;21.50;99.90;;;;;;5081550;28;20016;-71
2021/12/25 12:11:01;;;;;;;8.35;1.40;;;21.50;99.90;;;;;;5083008;28;20503;-71
2021/12/25 12:13:31;;;;;;;6.15;1.38;;;21.40;99.90;;;;;;5091226;28;20032;-72
2021/12/25 12:16:02;;;;;;;4.60;1.60;;;21.40;99.90;;;;;;5093788;28;20364;-70
2021/12/25 12:18:31;;;;;;;4.80;1.00;;;21.40;99.90;;;;;;5093895;28;20012;-71
2021/12/25 12:21:10;;;;;;;8.98;1.55;;;21.40;99.90;;;;;;5089301;28;20035;-73
2021/12/25 12:23:56;;;;;;;7.90;1.55;;;21.30;99.90;;;;;;5090819;28;20054;-72
2021/12/25 12:26:45;;;;;;;5.97;1.95;;;21.30;99.90;;;;;;5094043;28;20426;-73
2021/12/25 12:29:14;;;;;;;11.77;1.80;;;21.30;99.90;;;;;;5092773;28;20024;-72
2021/12/25 12:31:48;;;;;;;8.50;1.65;;;21.20;99.90;;;;;;5094071;28;20424;-72
2021/12/25 12:34:30;;;;;;;7.30;1.67;;;21.20;99.90;;;;;;5075757;28;20085;-71
2021/12/25 12:37:21;;;;;;;6.28;1.42;;;21.20;99.90;;;;;;5093493;28;20020;-73
2021/12/25 12:39:56;;;;;;;7.85;1.50;;;21.10;99.90;;;;;;5093552;28;20040;-71
2021/12/25 12:42:50;;;;;;;9.73;1.70;;;21.10;99.90;;;;;;5091939;28;20050;-74
2021/12/25 12:45:34;;;;;;;6.93;1.63;;;21.10;99.90;;;;;;5092713;28;20030;-71
2021/12/25 12:48:23;;;;;;;5.60;1.38;;;21.10;99.90;;;;;;5091291;28;20461;-73
2021/12/25 12:50:55;;;;;;;3.92;1.45;;;21.00;99.90;;;;;;5092119;28;20114;-74
2021/12/25 12:53:24;;;;;;;7.97;1.55;;;21.00;99.90;;;;;;5094162;28;20020;-74
2021/12/25 12:55:54;;;;;;;6.50;1.30;;;21.00;99.90;;;;;;5094237;28;20052;-74
2021/12/25 12:58:25;;;;;;;7.78;2.05;;;21.00;99.90;;;;;;5076178;28;20389;-74
2021/12/25 13:01:09;;;;;;;7.53;1.52;;;21.00;99.90;;;;;;5093930;28;20023;-74
2021/12/25 13:03:36;;;;;;;10.23;1.35;;;20.90;99.90;;;;;;5094109;28;20020;-74
2021/12/25 13:06:12;;;;;;;5.45;1.33;;;20.90;99.90;;;;;;5093873;28;20047;-74
2021/12/25 13:08:41;;;;;;;4.78;1.88;;;20.90;99.90;;;;;;5094088;28;20372;-74
2021/12/25 13:11:14;;;;;;;7.85;1.45;;;20.80;99.90;;;;;;5093976;28;20174;-74
2021/12/25 13:13:55;;;;;;;7.55;1.23;;;20.80;99.90;;;;;;5093463;28;20408;-74
2021/12/25 13:16:27;;;;;;;5.25;1.10;;;20.80;99.90;;;;;;5093941;28;20024;-74
2021/12/25 13:18:57;;;;;;;7.30;1.40;;;20.70;99.90;;;;;;5093585;28;20024;-74
2021/12/25 13:21:27;;;;;;;7.78;1.33;;;20.80;99.90;;;;;;5093800;28;20107;-73
2021/12/25 13:23:58;;;;;;;4.65;1.60;;;20.70;99.90;;;;;;5093262;28;20020;-74
2021/12/25 13:26:34;;;;;;;10.23;1.75;;;20.70;99.90;;;;;;5093169;28;20051;-75
2021/12/25 13:29:11;;;;;;;4.53;0.93;;;20.70;99.90;;;;;;5074662;28;20366;-74
2021/12/25 13:31:41;;;;;;;6.78;1.27;;;20.70;99.90;;;;;;5091001;28;20024;-74
2021/12/25 13:34:13;;;;;;;9.90;1.77;;;20.60;99.90;;;;;;5093347;28;20048;-74
2021/12/25 13:36:46;;;;;;;3.08;1.00;;;20.60;99.90;;;;;;5091364;28;20425;-76
2021/12/25 13:39:16;;;;;;;7.28;1.80;;;20.60;99.90;;;;;;5093566;28;20055;-75
2021/12/25 13:41:56;;;;;;;4.43;1.60;;;20.60;99.90;;;;;;5093660;28;20040;-75
2021/12/25 13:44:30;;;;;;;6.28;1.52;;;20.60;99.90;;;;;;5093603;28;20034;-74
2021/12/25 13:47:11;;;;;;;5.30;1.27;;;20.60;99.90;;;;;;5093822;28;20385;-75
2021/12/25 13:49:47;;;;;;;6.43;1.10;;;20.60;99.90;;;;;;5093589;28;20216;-74
2021/12/25 13:52:26;;;;;;;5.25;1.48;;;20.60;99.90;;;;;;5093566;28;20495;-75
2021/12/25 13:54:56;;;;;;;5.82;1.67;;;20.50;99.90;;;;;;5093999;28;20103;-74
2021/12/25 13:57:25;;;;;;;8.93;1.13;;;20.50;99.90;;;;;;5093903;28;20028;-75
2021/12/25 14:00:26;;;;;;;12.52;1.20;;;20.50;99.90;;;;;;5093309;28;20020;-74
2021/12/25 14:03:07;;;;;;;9.23;2.13;;;20.50;99.90;;;;;;5080050;28;20093;-74
2021/12/25 14:05:37;;;;;;;6.85;1.70;;;20.50;99.90;;;;;;5093283;28;20032;-74
2021/12/25 14:08:05;;;;;;;9.63;0.98;;;20.50;99.90;;;;;;5093456;28;20342;-74
2021/12/25 14:10:36;;;;;;;4.55;1.25;;;20.50;99.90;;;;;;5093308;28;20034;-74
2021/12/25 14:13:12;;;;;;;12.10;1.33;;;20.50;99.90;;;;;;5093317;28;20020;-74
2021/12/25 14:15:51;;;;;;;5.15;0.88;;;20.50;99.90;;;;;;5093333;28;20020;-74
2021/12/25 14:18:33;;;;;;;8.80;1.15;;;20.40;99.90;;;;;;5087865;28;20107;-75
2021/12/25 14:21:18;;;;;;;4.13;0.90;;;20.40;99.90;;;;;;5072711;28;20028;-74
2021/12/25 14:23:58;;;;;;;4.40;1.45;;;20.30;99.90;;;;;;5072938;28;20381;-75
2021/12/25 14:26:25;;;;;;;7.50;1.42;;;20.30;99.90;;;;;;5077144;28;20039;-74
2021/12/25 14:28:53;;;;;;;7.78;1.67;;;20.30;99.90;;;;;;5076852;28;20027;-74
2021/12/25 14:31:21;;;;;;;6.75;1.25;;;20.30;99.90;;;;;;5076794;28;20150;-74